Time;durP1;ratioP1;P1;durP2;ratioP2;P2;SDS_P1;SDS_P2;PMS_P1;PMS_P2;Temp;Humidity;BMP_temperature;BMP_pressure;BME280_temperature;BME280_humidity;BME280_pressure;Samples;Min_cycle;Max_cycle;Signal;HPM_P1;HPM_P2
2023/03/05 00:01:59;;;;;;;76.63;59.72;;;8.20;99.90;;;;;;5178688;28;20030;-66
2023/03/05 00:04:29;;;;;;;76.15;56.88;;;8.50;99.90;;;;;;5183234;28;20033;-67
2023/03/05 00:07:00;;;;;;;71.55;55.08;;;8.40;99.90;;;;;;5178164;28;20022;-66
2023/03/05 00:09:31;;;;;;;68.18;52.20;;;8.60;99.90;;;;;;5184252;28;20030;-67
2023/03/05 00:12:02;;;;;;;64.10;51.90;;;8.40;99.90;;;;;;5184008;28;20042;-67
2023/03/05 00:14:33;;;;;;;71.32;56.08;;;8.60;99.90;;;;;;5184070;28;20444;-67
2023/03/05 00:17:04;;;;;;;68.28;55.67;;;8.50;99.90;;;;;;5183739;28;20036;-67
2023/03/05 00:19:35;;;;;;;71.35;55.90;;;8.50;99.90;;;;;;5183511;28;20173;-66
2023/03/05 00:22:06;;;;;;;68.18;55.33;;;8.30;99.90;;;;;;5184398;28;20028;-67
2023/03/05 00:24:37;;;;;;;64.97;55.75;;;8.40;99.90;;;;;;5182936;28;20113;-66
2023/03/05 00:27:08;;;;;;;66.22;53.25;;;8.40;99.90;;;;;;5182773;28;20521;-67
2023/03/05 00:29:38;;;;;;;69.63;56.08;;;8.50;99.90;;;;;;5662464;23;20486;-66
2023/03/05 00:32:09;;;;;;;72.78;57.92;;;8.30;99.90;;;;;;5201361;28;20397;-69
2023/03/05 00:34:40;;;;;;;72.35;57.72;;;8.20;99.90;;;;;;5205188;28;20033;-66
2023/03/05 00:37:11;;;;;;;73.43;59.22;;;8.10;99.90;;;;;;5205838;28;20025;-66
2023/03/05 00:39:42;;;;;;;73.55;59.10;;;8.30;99.90;;;;;;5205620;28;20037;-66
2023/03/05 00:42:13;;;;;;;66.20;55.40;;;8.30;99.90;;;;;;5204588;28;20029;-68
2023/03/05 00:44:49;;;;;;;77.03;59.45;;;8.40;99.90;;;;;;5204522;28;20795;-64
2023/03/05 00:47:20;;;;;;;72.50;57.97;;;8.40;99.90;;;;;;5203802;28;20021;-66
2023/03/05 00:49:51;;;;;;;70.78;58.45;;;8.50;99.90;;;;;;5205089;28;20033;-66
2023/03/05 00:52:28;;;;;;;59.17;51.17;;;8.40;99.90;;;;;;5204918;28;20017;-69
2023/03/05 00:54:58;;;;;;;65.47;55.25;;;7.80;99.90;;;;;;5204959;28;20053;-66
2023/03/05 00:57:34;;;;;;;59.80;52.75;;;7.90;99.90;;;;;;5204634;28;20115;-68
2023/03/05 01:00:08;;;;;;;70.13;55.75;;;7.50;99.90;;;;;;5203560;28;20576;-67
2023/03/05 01:02:39;;;;;;;66.47;53.55;;;7.60;99.90;;;;;;5205267;28;20032;-65
2023/03/05 01:05:12;;;;;;;69.20;53.00;;;7.80;99.90;;;;;;5204174;28;20041;-67
2023/03/05 01:07:42;;;;;;;56.88;50.65;;;8.00;99.90;;;;;;5205015;28;20477;-65
2023/03/05 01:10:13;;;;;;;62.13;51.38;;;7.70;99.90;;;;;;5205173;28;20029;-64
2023/03/05 01:12:44;;;;;;;57.83;50.72;;;7.90;99.90;;;;;;5202039;28;20021;-68
2023/03/05 01:15:15;;;;;;;58.78;50.25;;;7.90;99.90;;;;;;5203737;28;20032;-66
2023/03/05 01:17:46;;;;;;;57.75;51.45;;;7.50;99.90;;;;;;5203835;28;20072;-64
2023/03/05 01:20:19;;;;;;;62.63;52.42;;;7.80;99.90;;;;;;5202508;28;20044;-64
2023/03/05 01:22:50;;;;;;;61.58;50.33;;;7.80;99.90;;;;;;5203922;28;20017;-66
2023/03/05 01:25:21;;;;;;;56.15;47.97;;;8.00;99.90;;;;;;5203410;28;20559;-67
2023/03/05 01:27:52;;;;;;;54.38;48.55;;;7.60;99.90;;;;;;5201576;28;20772;-66
2023/03/05 01:30:23;;;;;;;57.03;50.72;;;7.90;99.90;;;;;;5204923;28;20048;-67
2023/03/05 01:32:55;;;;;;;63.70;53.70;;;8.10;99.90;;;;;;5207511;28;20103;-65
2023/03/05 01:35:26;;;;;;;61.10;52.20;;;7.80;99.90;;;;;;5207393;28;20017;-66
2023/03/05 01:37:57;;;;;;;57.35;49.33;;;8.00;99.90;;;;;;5207038;28;20071;-66
2023/03/05 01:40:30;;;;;;;70.82;53.90;;;7.90;99.90;;;;;;5207690;28;20386;-66
2023/03/05 01:43:25;;;;;;;68.85;52.35;;;7.80;99.90;;;;;;5207499;28;20378;-67
2023/03/05 01:46:15;;;;;;;72.68;53.47;;;7.60;99.90;;;;;;5206194;28;20061;-66
2023/03/05 01:48:51;;;;;;;72.25;58.03;;;7.80;99.90;;;;;;5206228;28;20033;-66
2023/03/05 01:51:29;;;;;;;71.22;52.83;;;7.70;99.90;;;;;;5205237;28;20539;-66
2023/03/05 01:54:08;;;;;;;70.82;54.90;;;7.90;99.90;;;;;;5206069;28;20030;-64
2023/03/05 01:56:46;;;;;;;59.67;51.03;;;7.80;99.90;;;;;;5205663;28;20014;-64
2023/03/05 01:59:18;;;;;;;58.95;50.53;;;7.30;99.90;;;;;;5203048;28;20052;-66
2023/03/05 02:01:53;;;;;;;64.43;56.47;;;7.30;99.90;;;;;;5206401;28;20017;-66
2023/03/05 02:04:33;;;;;;;60.03;53.58;;;7.20;99.90;;;;;;5207110;28;20513;-68
2023/03/05 02:07:04;;;;;;;62.73;53.27;;;7.50;99.90;;;;;;5206213;28;20037;-68
2023/03/05 02:09:39;;;;;;;60.10;53.40;;;7.30;99.90;;;;;;5206907;28;20256;-67
2023/03/05 02:12:12;;;;;;;59.50;53.15;;;7.20;99.90;;;;;;5206956;28;20512;-66
2023/03/05 02:14:47;;;;;;;58.53;52.15;;;7.40;99.90;;;;;;5203030;28;20473;-68
2023/03/05 02:17:17;;;;;;;59.40;52.85;;;7.40;99.90;;;;;;5205130;28;20112;-68
2023/03/05 02:19:53;;;;;;;61.33;54.55;;;7.40;99.90;;;;;;5204606;28;20542;-68
2023/03/05 02:22:24;;;;;;;97.97;89.68;;;7.30;99.90;;;;;;5206596;28;20101;-69
2023/03/05 02:24:55;;;;;;;61.45;54.97;;;6.90;99.90;;;;;;5206663;28;20083;-69
2023/03/05 02:27:33;;;;;;;60.28;54.15;;;7.00;99.90;;;;;;5205674;28;20029;-68
2023/03/05 02:30:05;;;;;;;58.17;52.15;;;7.20;99.90;;;;;;5207026;28;20046;-69
2023/03/05 02:32:36;;;;;;;57.15;51.63;;;7.30;99.90;;;;;;5207316;28;20499;-68
2023/03/05 02:35:07;;;;;;;61.40;55.25;;;7.20;99.90;;;;;;5207466;28;20009;-69
2023/03/05 02:37:38;;;;;;;59.38;53.50;;;6.70;99.90;;;;;;5206863;28;20029;-69
2023/03/05 02:40:10;;;;;;;57.83;52.10;;;7.00;99.90;;;;;;5207372;28;20044;-69
2023/03/05 02:42:42;;;;;;;59.00;53.20;;;7.10;99.90;;;;;;5207112;28;20033;-69
2023/03/05 02:45:13;;;;;;;61.33;55.15;;;7.00;99.90;;;;;;5207376;28;20554;-68
2023/03/05 02:47:44;;;;;;;58.05;52.35;;;7.20;99.90;;;;;;5206660;28;20061;-69
2023/03/05 02:50:15;;;;;;;57.13;51.53;;;7.40;99.90;;;;;;5207500;28;20049;-69
2023/03/05 02:52:46;;;;;;;57.20;51.40;;;7.50;99.90;;;;;;5207309;28;20052;-69
2023/03/05 02:55:17;;;;;;;60.38;54.47;;;7.50;99.90;;;;;;5206968;28;20029;-69
2023/03/05 02:57:48;;;;;;;57.92;52.03;;;7.10;99.90;;;;;;5204787;28;20041;-68
2023/03/05 03:00:19;;;;;;;57.70;51.72;;;7.20;99.90;;;;;;5192610;28;20505;-68
2023/03/05 03:02:49;;;;;;;62.80;56.45;;;7.10;99.90;;;;;;5198176;28;20153;-67
2023/03/05 03:05:21;;;;;;;62.95;56.72;;;6.80;99.90;;;;;;5204919;28;20400;-67
2023/03/05 03:07:51;;;;;;;60.03;53.80;;;7.10;99.90;;;;;;5206270;28;20472;-66
2023/03/05 03:10:22;;;;;;;61.92;55.22;;;7.30;99.90;;;;;;5206946;28;20033;-66
2023/03/05 03:12:53;;;;;;;60.15;53.47;;;7.00;99.90;;;;;;5205811;28;20041;-68
2023/03/05 03:15:24;;;;;;;57.83;52.03;;;6.60;99.90;;;;;;5206495;28;20470;-69
2023/03/05 03:17:55;;;;;;;58.63;52.65;;;6.70;99.90;;;;;;5206283;28;20026;-65
2023/03/05 03:20:26;;;;;;;60.22;53.88;;;7.00;99.90;;;;;;5204934;28;20060;-69
2023/03/05 03:22:57;;;;;;;62.55;55.95;;;7.00;99.90;;;;;;5206758;28;20025;-69
2023/03/05 03:25:28;;;;;;;60.50;53.90;;;6.90;99.90;;;;;;5206818;28;20033;-69
2023/03/05 03:27:59;;;;;;;64.00;57.55;;;7.20;99.90;;;;;;5206530;28;20058;-68
2023/03/05 03:30:30;;;;;;;58.17;52.35;;;7.30;99.90;;;;;;5205272;28;20095;-69
2023/03/05 03:33:01;;;;;;;63.38;56.50;;;7.20;99.90;;;;;;5205096;28;20032;-67
2023/03/05 03:35:32;;;;;;;63.55;55.60;;;7.00;99.90;;;;;;5204879;28;20159;-66
2023/03/05 03:38:03;;;;;;;70.57;60.13;;;7.00;99.90;;;;;;5206142;28;20044;-68
2023/03/05 03:40:36;;;;;;;71.40;58.05;;;6.80;99.90;;;;;;5205242;28;20025;-66
2023/03/05 03:43:07;;;;;;;69.28;57.22;;;6.70;99.90;;;;;;5206259;28;20093;-67
2023/03/05 03:45:42;;;;;;;63.10;54.17;;;7.00;99.90;;;;;;5206256;28;20018;-70
2023/03/05 03:48:13;;;;;;;76.15;56.17;;;6.60;99.90;;;;;;5205504;28;20041;-68
2023/03/05 03:50:44;;;;;;;78.45;60.00;;;7.00;99.90;;;;;;5204694;28;20018;-69
2023/03/05 03:53:16;;;;;;;77.93;60.53;;;7.10;99.90;;;;;;5205530;28;20381;-65
2023/03/05 03:55:47;;;;;;;78.55;62.00;;;7.30;99.90;;;;;;5205905;28;20512;-68
2023/03/05 03:58:18;;;;;;;79.20;61.35;;;7.40;99.90;;;;;;5205201;28;20398;-66
2023/03/05 04:00:48;;;;;;;75.05;60.58;;;7.30;99.90;;;;;;5206022;28;20032;-65
2023/03/05 04:03:19;;;;;;;80.10;62.63;;;7.00;99.90;;;;;;5205457;28;20034;-65
2023/03/05 04:05:50;;;;;;;84.40;60.40;;;7.20;99.90;;;;;;5204863;28;20026;-67
2023/03/05 04:08:21;;;;;;;79.85;60.28;;;7.40;99.90;;;;;;5205594;28;20370;-69
2023/03/05 04:10:52;;;;;;;80.75;58.30;;;7.10;99.90;;;;;;5206019;28;20033;-66
2023/03/05 04:13:23;;;;;;;79.88;62.83;;;7.40;99.90;;;;;;5205948;28;20097;-67
2023/03/05 04:15:54;;;;;;;83.45;58.35;;;7.30;99.90;;;;;;5205001;28;20083;-67
2023/03/05 04:18:25;;;;;;;78.00;58.55;;;6.90;99.90;;;;;;5203635;28;20492;-70
2023/03/05 04:20:55;;;;;;;79.70;63.45;;;7.20;99.90;;;;;;5206122;28;20097;-66
2023/03/05 04:23:26;;;;;;;80.38;61.55;;;7.20;99.90;;;;;;5206035;28;20030;-65
2023/03/05 04:25:57;;;;;;;74.25;59.25;;;7.40;99.90;;;;;;5205528;28;20032;-66
2023/03/05 04:28:28;;;;;;;79.55;62.92;;;7.30;99.90;;;;;;5205328;28;20451;-69
2023/03/05 04:30:59;;;;;;;76.28;59.45;;;7.30;99.90;;;;;;5204178;28;20030;-65
2023/03/05 04:33:30;;;;;;;78.00;62.85;;;7.00;99.90;;;;;;5205382;28;20048;-64
2023/03/05 04:36:02;;;;;;;74.72;60.33;;;7.10;99.90;;;;;;5205108;28;20026;-67
2023/03/05 04:38:33;;;;;;;71.38;60.45;;;7.20;99.90;;;;;;5204007;28;20069;-64
2023/03/05 04:41:04;;;;;;;68.50;58.42;;;7.50;99.90;;;;;;5204771;28;20759;-65
2023/03/05 04:43:34;;;;;;;69.43;54.45;;;6.90;99.90;;;;;;5204095;28;20026;-69
2023/03/05 04:46:05;;;;;;;68.47;57.03;;;7.10;99.90;;;;;;5205252;28;20109;-67
2023/03/05 04:48:36;;;;;;;69.75;57.15;;;7.40;99.90;;;;;;5204394;28;20034;-68
2023/03/05 04:51:07;;;;;;;66.32;55.72;;;7.40;99.90;;;;;;5204926;28;20074;-68
2023/03/05 04:53:38;;;;;;;62.28;53.97;;;7.50;99.90;;;;;;5205594;28;20025;-65
2023/03/05 04:56:09;;;;;;;70.15;58.50;;;7.50;99.90;;;;;;5205319;28;20014;-69
2023/03/05 04:58:40;;;;;;;75.20;58.83;;;7.40;99.90;;;;;;5203836;28;20140;-69
2023/03/05 05:01:10;;;;;;;63.05;52.40;;;7.40;99.90;;;;;;5204164;28;20071;-66
2023/03/05 05:03:41;;;;;;;61.22;54.17;;;7.50;99.90;;;;;;5205538;28;20030;-69
2023/03/05 05:06:12;;;;;;;60.53;54.13;;;7.70;99.90;;;;;;5209137;28;20025;-70
2023/03/05 05:08:43;;;;;;;65.15;54.47;;;7.70;99.90;;;;;;5208942;28;20504;-66
2023/03/05 05:11:14;;;;;;;60.92;52.67;;;7.70;99.90;;;;;;5208264;28;20030;-69
2023/03/05 05:13:45;;;;;;;60.13;53.22;;;7.40;99.90;;;;;;5208892;28;20067;-69
2023/03/05 05:16:16;;;;;;;58.38;51.63;;;7.70;99.90;;;;;;5206614;28;20032;-69
2023/03/05 05:18:47;;;;;;;62.53;53.38;;;7.80;99.90;;;;;;5208694;28;20040;-67
2023/03/05 05:21:19;;;;;;;61.83;54.88;;;8.00;99.90;;;;;;5207632;28;20038;-69
2023/03/05 05:23:50;;;;;;;59.22;52.88;;;8.00;99.90;;;;;;5208845;28;20136;-69
2023/03/05 05:26:21;;;;;;;58.38;51.40;;;8.00;99.90;;;;;;5208268;28;20037;-69
2023/03/05 05:28:51;;;;;;;58.05;51.75;;;8.10;99.90;;;;;;5207009;28;20520;-67
2023/03/05 05:31:22;;;;;;;59.75;51.17;;;8.00;99.90;;;;;;5207999;28;20025;-66
2023/03/05 05:33:53;;;;;;;61.28;54.88;;;8.20;99.90;;;;;;5208945;28;20366;-68
2023/03/05 05:36:24;;;;;;;58.65;52.30;;;8.10;99.90;;;;;;5208729;28;20470;-69
2023/03/05 05:38:55;;;;;;;55.97;49.88;;;7.80;99.90;;;;;;5208658;28;20056;-65
2023/03/05 05:41:26;;;;;;;56.70;50.88;;;8.10;99.90;;;;;;5207676;28;20021;-69
2023/03/05 05:43:56;;;;;;;56.90;50.80;;;8.30;99.90;;;;;;5207177;28;20037;-65
2023/03/05 05:46:27;;;;;;;59.75;52.85;;;8.20;99.90;;;;;;5208053;28;20393;-65
2023/03/05 05:48:58;;;;;;;58.13;51.75;;;8.00;99.90;;;;;;5208153;28;20030;-68
2023/03/05 05:51:29;;;;;;;58.28;52.10;;;8.10;99.90;;;;;;5207576;28;20034;-68
2023/03/05 05:54:00;;;;;;;56.15;50.00;;;8.10;99.90;;;;;;5208003;28;20025;-66
2023/03/05 05:56:32;;;;;;;72.93;65.70;;;8.20;99.90;;;;;;5207974;28;20385;-65
2023/03/05 05:59:03;;;;;;;56.58;50.47;;;8.40;99.90;;;;;;5655589;22;20073;-66
2023/03/05 06:01:34;;;;;;;58.97;52.55;;;8.20;99.90;;;;;;5204983;28;20477;-68
2023/03/05 06:04:05;;;;;;;95.90;81.40;;;8.30;99.90;;;;;;5208025;28;20412;-65
2023/03/05 06:06:36;;;;;;;111.82;95.97;;;8.50;99.90;;;;;;5206950;28;20029;-65
2023/03/05 06:09:07;;;;;;;103.78;90.75;;;8.40;99.90;;;;;;5208385;28;20053;-70
2023/03/05 06:11:38;;;;;;;85.00;71.78;;;8.70;99.90;;;;;;5208127;28;20112;-66
2023/03/05 06:14:10;;;;;;;81.07;72.32;;;8.50;99.90;;;;;;5207947;28;20078;-69
2023/03/05 06:16:41;;;;;;;70.45;61.63;;;8.70;99.90;;;;;;5206527;28;20104;-65
2023/03/05 06:19:14;;;;;;;67.72;55.10;;;8.80;99.90;;;;;;5207795;28;20182;-68
2023/03/05 06:21:45;;;;;;;68.13;52.67;;;8.90;99.90;;;;;;5207904;28;20112;-66
2023/03/05 06:24:18;;;;;;;59.72;51.50;;;8.90;99.90;;;;;;5207913;28;20160;-69
2023/03/05 06:26:49;;;;;;;60.97;52.75;;;9.00;99.90;;;;;;5207319;28;20384;-70
2023/03/05 06:29:19;;;;;;;61.20;52.08;;;9.00;99.90;;;;;;5207486;28;20030;-69
2023/03/05 06:31:50;;;;;;;60.40;50.97;;;8.80;99.90;;;;;;5207710;28;20487;-69
2023/03/05 06:34:21;;;;;;;63.67;55.17;;;9.00;99.90;;;;;;5207686;28;20021;-65
2023/03/05 06:36:52;;;;;;;61.08;54.45;;;9.00;99.90;;;;;;5207257;28;20040;-69
2023/03/05 06:39:23;;;;;;;65.05;56.97;;;9.00;99.90;;;;;;5206467;28;20037;-69
2023/03/05 06:41:54;;;;;;;62.75;53.85;;;9.20;99.90;;;;;;5207621;28;20025;-69
2023/03/05 06:44:25;;;;;;;57.70;50.75;;;9.40;99.90;;;;;;5206239;28;20033;-69
2023/03/05 06:46:55;;;;;;;58.10;49.63;;;9.50;99.90;;;;;;5207477;28;20025;-69
2023/03/05 06:49:26;;;;;;;55.45;47.38;;;9.30;99.90;;;;;;5206078;28;20057;-69
2023/03/05 06:51:57;;;;;;;55.20;47.88;;;9.30;99.90;;;;;;5207344;28;20033;-65
2023/03/05 06:54:28;;;;;;;54.78;49.08;;;9.70;99.90;;;;;;5205531;28;20347;-66
2023/03/05 06:56:59;;;;;;;58.75;49.00;;;9.60;99.90;;;;;;5206559;28;20034;-65
2023/03/05 06:59:30;;;;;;;56.72;48.75;;;9.80;99.90;;;;;;5205867;28;20050;-65
2023/03/05 07:02:01;;;;;;;53.58;47.63;;;10.00;99.90;;;;;;5207129;28;20036;-65
2023/03/05 07:04:31;;;;;;;51.88;46.20;;;10.10;99.90;;;;;;5204637;28;20477;-65
2023/03/05 07:07:02;;;;;;;51.42;45.47;;;10.10;99.90;;;;;;5206680;28;20025;-64
2023/03/05 07:09:33;;;;;;;68.53;52.60;;;10.00;99.90;;;;;;5207061;28;20065;-66
2023/03/05 07:12:04;;;;;;;81.43;65.95;;;10.00;99.90;;;;;;5206976;28;20017;-66
2023/03/05 07:14:36;;;;;;;85.15;66.28;;;10.10;99.90;;;;;;5205696;28;20060;-70
2023/03/05 07:17:07;;;;;;;100.43;78.20;;;10.30;99.90;;;;;;5206825;28;20036;-66
2023/03/05 07:19:38;;;;;;;98.60;77.03;;;10.10;99.90;;;;;;5206684;28;20033;-69
2023/03/05 07:22:09;;;;;;;103.40;79.00;;;10.20;99.90;;;;;;5206684;28;20488;-70
2023/03/05 07:24:40;;;;;;;98.47;79.50;;;10.20;99.90;;;;;;5204374;28;20025;-65
2023/03/05 07:27:11;;;;;;;71.07;59.17;;;10.20;99.90;;;;;;5206090;28;20477;-70
2023/03/05 07:29:42;;;;;;;67.45;54.53;;;10.30;99.90;;;;;;5206032;28;20041;-65
2023/03/05 07:32:12;;;;;;;58.75;52.47;;;10.60;99.90;;;;;;5206599;28;20108;-70
2023/03/05 07:34:43;;;;;;;58.72;51.67;;;10.60;99.90;;;;;;5205688;28;20095;-66
2023/03/05 07:37:14;;;;;;;47.55;41.67;;;10.80;99.90;;;;;;5206632;28;20071;-70
2023/03/05 07:39:45;;;;;;;46.60;42.00;;;10.70;99.90;;;;;;5206343;28;20030;-63
2023/03/05 07:42:16;;;;;;;49.17;43.92;;;10.80;99.90;;;;;;5205983;28;20482;-66
2023/03/05 07:44:47;;;;;;;46.92;39.55;;;10.90;99.90;;;;;;5206593;28;20025;-64
2023/03/05 07:47:18;;;;;;;48.55;43.65;;;10.80;99.90;;;;;;5206260;28;20064;-66
2023/03/05 07:49:49;;;;;;;44.63;40.55;;;10.80;99.90;;;;;;5206284;28;20057;-65
2023/03/05 07:52:20;;;;;;;44.50;39.90;;;10.90;99.90;;;;;;5205523;28;20358;-64
2023/03/05 07:54:51;;;;;;;41.60;37.58;;;10.90;99.90;;;;;;5204161;28;20076;-63
2023/03/05 07:57:22;;;;;;;40.72;36.83;;;10.80;99.90;;;;;;5204716;28;20021;-63
2023/03/05 07:59:53;;;;;;;41.45;37.22;;;10.80;99.90;;;;;;5202410;28;20049;-63
2023/03/05 08:02:24;;;;;;;44.65;40.30;;;10.80;99.90;;;;;;5204150;28;20022;-63
2023/03/05 08:04:55;;;;;;;41.10;37.22;;;10.70;99.90;;;;;;5204074;28;20079;-64
2023/03/05 08:07:26;;;;;;;44.65;40.35;;;11.00;99.90;;;;;;5203399;28;20144;-63
2023/03/05 08:09:57;;;;;;;43.47;39.38;;;11.00;99.90;;;;;;5203928;28;20101;-63
2023/03/05 08:12:28;;;;;;;45.30;40.65;;;11.00;99.90;;;;;;5205614;28;20037;-63
2023/03/05 08:15:00;;;;;;;46.75;42.45;;;11.00;99.90;;;;;;5205832;28;20031;-64
2023/03/05 08:17:31;;;;;;;48.28;43.53;;;11.10;99.90;;;;;;5202441;28;20036;-64
2023/03/05 08:20:04;;;;;;;47.00;42.88;;;11.30;99.90;;;;;;5203362;28;20038;-65
2023/03/05 08:22:38;;;;;;;46.30;42.10;;;11.30;99.90;;;;;;5196083;28;20052;-65
2023/03/05 08:25:10;;;;;;;48.88;44.65;;;11.50;99.90;;;;;;5205679;28;20038;-64
2023/03/05 08:27:45;;;;;;;45.42;41.20;;;11.50;99.90;;;;;;5201710;28;20033;-67
2023/03/05 08:30:20;;;;;;;47.92;43.90;;;11.30;99.90;;;;;;5205488;28;20089;-64
2023/03/05 08:32:52;;;;;;;45.05;41.35;;;11.30;99.90;;;;;;5205564;28;20402;-66
2023/03/05 08:35:23;;;;;;;45.53;41.92;;;11.30;99.90;;;;;;5205481;28;20031;-64
2023/03/05 08:37:54;;;;;;;41.17;37.25;;;11.20;99.90;;;;;;5203437;28;20034;-65
2023/03/05 08:40:25;;;;;;;45.90;42.03;;;11.20;99.90;;;;;;5206283;28;20456;-66
2023/03/05 08:42:58;;;;;;;47.38;43.28;;;11.40;99.90;;;;;;5209816;28;20036;-65
2023/03/05 08:45:29;;;;;;;47.47;43.28;;;11.50;99.90;;;;;;5197460;28;20104;-65
2023/03/05 08:48:00;;;;;;;47.53;43.72;;;11.50;99.90;;;;;;5198087;28;20104;-66
2023/03/05 08:50:31;;;;;;;47.00;42.97;;;11.60;99.90;;;;;;5209687;28;20024;-66
2023/03/05 08:53:02;;;;;;;48.53;44.28;;;11.60;99.90;;;;;;5208444;28;20030;-65
2023/03/05 08:55:32;;;;;;;51.65;47.40;;;11.60;99.90;;;;;;5209508;28;20026;-66
2023/03/05 08:58:03;;;;;;;58.10;52.80;;;11.60;99.90;;;;;;5209163;28;20038;-65
2023/03/05 09:00:34;;;;;;;56.05;51.03;;;11.60;99.90;;;;;;5209278;28;20052;-66
2023/03/05 09:03:05;;;;;;;59.83;54.50;;;11.60;99.90;;;;;;5200310;28;20041;-67
2023/03/05 09:05:36;;;;;;;57.58;52.58;;;11.70;99.90;;;;;;5200856;28;20022;-67
2023/03/05 09:08:07;;;;;;;60.13;54.83;;;11.50;99.90;;;;;;5209058;28;20143;-67
2023/03/05 09:10:39;;;;;;;55.03;50.63;;;11.50;99.90;;;;;;5209013;28;20104;-67
2023/03/05 09:13:11;;;;;;;52.58;48.08;;;11.50;99.90;;;;;;5209044;28;20030;-67
2023/03/05 09:15:42;;;;;;;51.38;46.75;;;11.70;99.90;;;;;;5208964;28;20029;-67
2023/03/05 09:18:12;;;;;;;51.08;46.78;;;11.60;99.90;;;;;;5209094;28;20030;-66
2023/03/05 09:20:43;;;;;;;51.08;46.60;;;11.50;99.90;;;;;;5208819;28;20086;-66
2023/03/05 09:23:14;;;;;;;52.63;48.28;;;11.50;99.90;;;;;;5208755;28;20370;-66
2023/03/05 09:25:45;;;;;;;50.50;46.35;;;11.60;99.90;;;;;;5208935;28;20025;-66
2023/03/05 09:28:16;;;;;;;53.47;49.13;;;11.60;99.90;;;;;;5205982;28;20474;-66
2023/03/05 09:30:47;;;;;;;58.60;53.30;;;11.80;99.90;;;;;;5208410;28;20025;-66
2023/03/05 09:33:18;;;;;;;54.05;49.20;;;11.50;99.90;;;;;;5206235;28;20033;-66
2023/03/05 09:35:49;;;;;;;52.30;47.65;;;11.40;99.90;;;;;;5207189;28;20026;-65
2023/03/05 09:38:20;;;;;;;52.83;48.05;;;11.50;99.90;;;;;;5204298;28;20029;-69
2023/03/05 09:41:13;;;;;;;58.97;53.30;;;11.30;99.90;;;;;;5204426;28;20033;-65
2023/03/05 09:44:17;;;;;;;45.28;41.38;;;11.20;99.90;;;;;;5197751;28;20079;-65
2023/03/05 09:46:53;;;;;;;45.65;41.20;;;11.10;99.90;;;;;;5202577;28;20427;-66
2023/03/05 09:50:07;;;;;;;43.53;39.33;;;11.10;99.90;;;;;;5204093;28;20049;-66
2023/03/05 09:52:40;;;;;;;41.72;37.88;;;11.00;99.90;;;;;;5207413;28;20040;-66
2023/03/05 09:55:49;;;;;;;43.08;39.05;;;11.10;99.90;;;;;;5205553;28;20040;-66
2023/03/05 09:58:44;;;;;;;40.53;36.63;;;11.10;99.90;;;;;;5207362;28;20053;-65
2023/03/05 10:01:20;;;;;;;46.28;41.58;;;11.20;99.90;;;;;;5206127;28;20032;-65
2023/03/05 10:04:17;;;;;;;40.50;36.80;;;11.00;99.90;;;;;;5206773;28;20013;-65
2023/03/05 10:06:57;;;;;;;48.65;43.95;;;10.80;99.90;;;;;;5206598;28;20108;-66
2023/03/05 10:09:49;;;;;;;44.97;40.80;;;10.80;99.90;;;;;;5206199;28;20095;-65
2023/03/05 10:12:37;;;;;;;44.80;40.35;;;10.70;99.90;;;;;;5205119;28;20026;-65
2023/03/05 10:15:18;;;;;;;44.17;40.08;;;10.80;99.90;;;;;;5204852;28;20021;-65
2023/03/05 10:18:13;;;;;;;42.90;38.75;;;10.70;99.90;;;;;;5199498;28;20096;-65
2023/03/05 10:20:55;;;;;;;43.08;38.72;;;10.90;99.90;;;;;;5206137;28;20045;-65
2023/03/05 10:23:35;;;;;;;46.08;41.42;;;10.70;99.90;;;;;;5207462;28;20499;-65
2023/03/05 10:26:20;;;;;;;50.50;45.45;;;10.60;99.90;;;;;;5207126;28;20033;-65
2023/03/05 10:29:10;;;;;;;47.30;43.00;;;10.50;99.90;;;;;;5206102;28;20041;-65
2023/03/05 10:31:57;;;;;;;48.17;43.60;;;10.70;99.90;;;;;;5202046;28;20030;-64
2023/03/05 10:34:54;;;;;;;47.75;43.15;;;10.70;99.90;;;;;;5203951;28;20060;-65
2023/03/05 10:37:47;;;;;;;43.80;39.35;;;10.60;99.90;;;;;;5196486;28;20041;-65
2023/03/05 10:40:43;;;;;;;106.35;97.53;;;10.70;99.90;;;;;;5207637;28;20044;-65
2023/03/05 10:43:24;;;;;;;49.83;44.67;;;10.60;99.90;;;;;;5198276;28;20118;-66
2023/03/05 10:45:57;;;;;;;50.42;45.38;;;10.60;99.90;;;;;;5196095;28;20056;-65
2023/03/05 10:48:40;;;;;;;49.50;44.22;;;10.60;99.90;;;;;;5206859;28;20081;-65
2023/03/05 10:51:33;;;;;;;53.67;47.88;;;10.70;99.90;;;;;;5204723;28;20410;-66
2023/03/05 10:54:28;;;;;;;56.50;50.22;;;10.80;99.90;;;;;;5206107;28;20021;-66
2023/03/05 10:57:19;;;;;;;62.47;52.63;;;10.80;99.90;;;;;;5205964;28;20034;-66
2023/03/05 10:59:53;;;;;;;59.83;53.35;;;10.70;99.90;;;;;;5206753;28;20119;-66
2023/03/05 11:02:24;;;;;;;60.40;53.78;;;10.80;99.90;;;;;;5207006;28;20103;-66
2023/03/05 11:04:55;;;;;;;59.72;53.15;;;10.90;99.90;;;;;;5207048;28;20029;-64
2023/03/05 11:07:31;;;;;;;57.38;51.15;;;10.80;99.90;;;;;;5200547;28;20029;-65
2023/03/05 11:10:05;;;;;;;56.45;48.65;;;10.90;99.90;;;;;;5196333;28;20510;-64
2023/03/05 11:12:37;;;;;;;59.30;51.70;;;10.80;99.90;;;;;;5205459;28;20025;-66
2023/03/05 11:15:14;;;;;;;62.33;55.55;;;10.80;99.90;;;;;;5198153;28;20057;-66
2023/03/05 11:17:47;;;;;;;56.17;50.00;;;10.80;99.90;;;;;;5198003;28;20083;-66
2023/03/05 11:20:30;;;;;;;62.78;53.85;;;10.70;99.90;;;;;;5202015;28;20033;-66
2023/03/05 11:23:03;;;;;;;64.43;54.53;;;10.80;99.90;;;;;;5206693;28;20438;-66
2023/03/05 11:25:47;;;;;;;59.88;51.78;;;10.90;99.90;;;;;;5205254;28;20036;-66
2023/03/05 11:28:20;;;;;;;61.28;53.97;;;10.70;99.90;;;;;;5206461;28;20048;-66
2023/03/05 11:31:14;;;;;;;62.80;52.13;;;10.80;99.90;;;;;;5205186;28;20037;-66
2023/03/05 11:34:17;;;;;;;60.67;52.72;;;10.80;99.90;;;;;;5190035;28;20042;-66
2023/03/05 11:36:54;;;;;;;61.63;54.60;;;10.90;99.90;;;;;;5194716;28;20033;-67
2023/03/05 11:39:27;;;;;;;59.67;51.20;;;10.80;99.90;;;;;;5206060;28;20033;-66
2023/03/05 11:41:59;;;;;;;56.33;50.25;;;10.90;99.90;;;;;;5205972;28;20030;-66
2023/03/05 11:44:53;;;;;;;59.28;52.95;;;10.90;99.90;;;;;;5204469;28;20082;-66
2023/03/05 11:47:42;;;;;;;56.10;49.72;;;10.90;99.90;;;;;;5205406;28;20033;-66
2023/03/05 11:50:31;;;;;;;56.97;50.65;;;10.90;99.90;;;;;;5205428;28;20033;-66
2023/03/05 11:53:24;;;;;;;55.53;49.83;;;10.80;99.90;;;;;;5206002;28;20093;-65
2023/03/05 11:56:17;;;;;;;55.92;50.13;;;10.60;99.90;;;;;;5205294;28;20030;-66
2023/03/05 11:58:56;;;;;;;59.90;50.42;;;10.80;99.90;;;;;;5204785;28;20053;-66
2023/03/05 12:01:34;;;;;;;58.22;49.70;;;10.70;99.90;;;;;;5205600;28;20025;-66
2023/03/05 12:04:07;;;;;;;52.97;47.78;;;10.70;99.90;;;;;;5205951;28;20032;-66
2023/03/05 12:06:45;;;;;;;53.65;48.15;;;10.70;99.90;;;;;;5206085;28;20032;-66
2023/03/05 12:09:39;;;;;;;52.40;46.70;;;10.70;99.90;;;;;;5206006;28;20036;-65
2023/03/05 12:12:44;;;;;;;56.13;50.03;;;10.70;99.90;;;;;;5205497;28;20076;-67
2023/03/05 12:15:24;;;;;;;53.83;48.00;;;10.80;99.90;;;;;;5202691;28;20098;-66
2023/03/05 12:18:13;;;;;;;54.45;48.75;;;10.70;99.90;;;;;;5202808;28;20461;-65
2023/03/05 12:21:02;;;;;;;56.23;50.43;;;10.70;99.90;;;;;;5205594;28;20041;-66
2023/03/05 12:23:53;;;;;;;52.92;47.55;;;10.70;99.90;;;;;;5205270;28;20060;-65
2023/03/05 12:26:55;;;;;;;53.22;47.55;;;10.70;99.90;;;;;;5203465;28;20025;-65
2023/03/05 12:29:26;;;;;;;51.05;45.65;;;10.50;99.90;;;;;;5203150;28;20114;-65
2023/03/05 12:32:00;;;;;;;50.92;45.60;;;10.60;99.90;;;;;;5202982;28;20045;-66
2023/03/05 12:34:38;;;;;;;51.22;45.75;;;10.80;99.90;;;;;;5203859;28;20014;-65
2023/03/05 12:37:32;;;;;;;52.40;47.15;;;10.80;99.90;;;;;;5202030;28;20093;-66
2023/03/05 12:40:11;;;;;;;49.40;44.40;;;10.80;99.90;;;;;;5186285;28;20057;-66
2023/03/05 12:42:46;;;;;;;52.75;47.65;;;10.80;99.90;;;;;;5204887;28;20028;-66
2023/03/05 12:45:18;;;;;;;51.00;45.83;;;10.60;99.90;;;;;;5204785;28;20489;-66
2023/03/05 12:47:54;;;;;;;48.75;43.90;;;10.90;99.90;;;;;;5204626;28;20018;-66
2023/03/05 12:50:28;;;;;;;47.03;42.25;;;10.90;99.90;;;;;;5203435;28;20071;-65
2023/03/05 12:53:11;;;;;;;49.28;44.10;;;10.80;99.90;;;;;;5203471;28;20409;-66
2023/03/05 12:55:44;;;;;;;45.22;40.63;;;10.60;99.90;;;;;;5204825;28;20087;-65
2023/03/05 12:59:05;;;;;;;51.63;43.83;;;10.80;99.90;;;;;;5208336;28;20097;-66
2023/03/05 13:01:49;;;;;;;47.00;42.25;;;10.70;99.90;;;;;;5192615;28;20409;-65
2023/03/05 13:04:29;;;;;;;48.50;43.58;;;10.50;99.90;;;;;;5204318;28;20531;-64
2023/03/05 13:07:10;;;;;;;48.88;43.80;;;10.50;99.90;;;;;;5196744;28;20080;-65
2023/03/05 13:09:51;;;;;;;49.40;43.05;;;10.50;99.90;;;;;;5204753;28;20025;-65
2023/03/05 13:12:24;;;;;;;49.60;44.25;;;10.70;99.90;;;;;;5204650;28;20026;-65